sensor_id;sensor_type;location;lat;lon;timestamp;P1;durP1;ratioP1;P2;durP2;ratioP2
80891;SDS011;70343;51.530;5.050;2023-08-30T00:02:18;9.80;;;6.90;;
80891;SDS011;70343;51.530;5.050;2023-08-30T00:04:43;9.70;;;6.53;;
80891;SDS011;70343;51.530;5.050;2023-08-30T00:07:09;8.18;;;6.45;;
80891;SDS011;70343;51.530;5.050;2023-08-30T00:09:35;8.65;;;6.43;;
80891;SDS011;70343;51.530;5.050;2023-08-30T00:12:01;9.88;;;6.63;;
80891;SDS011;70343;51.530;5.050;2023-08-30T00:14:27;10.88;;;7.40;;
80891;SDS011;70343;51.530;5.050;2023-08-30T00:16:53;7.55;;;6.20;;
80891;SDS011;70343;51.530;5.050;2023-08-30T00:19:18;8.80;;;6.35;;
80891;SDS011;70343;51.530;5.050;2023-08-30T00:21:45;16.25;;;7.80;;
80891;SDS011;70343;51.530;5.050;2023-08-30T00:24:11;8.23;;;6.07;;
80891;SDS011;70343;51.530;5.050;2023-08-30T00:26:36;10.82;;;6.57;;
80891;SDS011;70343;51.530;5.050;2023-08-30T00:29:04;8.02;;;5.88;;
80891;SDS011;70343;51.530;5.050;2023-08-30T00:31:29;9.10;;;6.15;;
80891;SDS011;70343;51.530;5.050;2023-08-30T00:33:55;10.07;;;7.15;;
80891;SDS011;70343;51.530;5.050;2023-08-30T00:36:20;12.98;;;7.90;;
80891;SDS011;70343;51.530;5.050;2023-08-30T00:38:47;10.70;;;6.13;;
80891;SDS011;70343;51.530;5.050;2023-08-30T00:41:12;8.40;;;6.47;;
80891;SDS011;70343;51.530;5.050;2023-08-30T00:43:38;9.85;;;7.13;;
80891;SDS011;70343;51.530;5.050;2023-08-30T00:46:04;9.20;;;6.90;;
80891;SDS011;70343;51.530;5.050;2023-08-30T00:48:29;8.63;;;6.25;;
80891;SDS011;70343;51.530;5.050;2023-08-30T00:50:55;8.10;;;5.90;;
80891;SDS011;70343;51.530;5.050;2023-08-30T00:53:22;8.30;;;6.63;;
80891;SDS011;70343;51.530;5.050;2023-08-30T00:55:47;10.90;;;6.65;;
80891;SDS011;70343;51.530;5.050;2023-08-30T00:58:13;8.30;;;6.30;;
80891;SDS011;70343;51.530;5.050;2023-08-30T01:00:39;10.52;;;6.32;;
80891;SDS011;70343;51.530;5.050;2023-08-30T01:03:05;9.80;;;6.07;;
80891;SDS011;70343;51.530;5.050;2023-08-30T01:05:32;9.35;;;6.70;;
80891;SDS011;70343;51.530;5.050;2023-08-30T01:07:58;10.25;;;6.68;;
80891;SDS011;70343;51.530;5.050;2023-08-30T01:10:37;10.10;;;6.90;;
80891;SDS011;70343;51.530;5.050;2023-08-30T01:13:09;10.02;;;6.10;;
80891;SDS011;70343;51.530;5.050;2023-08-30T01:15:40;8.90;;;6.32;;
80891;SDS011;70343;51.530;5.050;2023-08-30T01:18:07;9.73;;;6.50;;
80891;SDS011;70343;51.530;5.050;2023-08-30T01:20:35;10.63;;;6.18;;
80891;SDS011;70343;51.530;5.050;2023-08-30T01:23:05;10.10;;;6.40;;
80891;SDS011;70343;51.530;5.050;2023-08-30T01:25:52;9.45;;;6.60;;
80891;SDS011;70343;51.530;5.050;2023-08-30T01:28:26;10.05;;;6.70;;
80891;SDS011;70343;51.530;5.050;2023-08-30T01:30:55;9.50;;;6.28;;
80891;SDS011;70343;51.530;5.050;2023-08-30T01:33:25;14.15;;;6.60;;
80891;SDS011;70343;51.530;5.050;2023-08-30T01:35:53;10.32;;;6.50;;
80891;SDS011;70343;51.530;5.050;2023-08-30T01:38:20;8.60;;;6.35;;
80891;SDS011;70343;51.530;5.050;2023-08-30T01:40:46;10.02;;;6.82;;
80891;SDS011;70343;51.530;5.050;2023-08-30T01:43:13;10.38;;;6.55;;
80891;SDS011;70343;51.530;5.050;2023-08-30T01:45:41;13.05;;;6.60;;
80891;SDS011;70343;51.530;5.050;2023-08-30T01:48:12;7.85;;;6.28;;
80891;SDS011;70343;51.530;5.050;2023-08-30T01:50:40;9.48;;;6.15;;
80891;SDS011;70343;51.530;5.050;2023-08-30T01:53:07;8.82;;;6.07;;
80891;SDS011;70343;51.530;5.050;2023-08-30T01:55:35;8.95;;;6.30;;
80891;SDS011;70343;51.530;5.050;2023-08-30T01:58:02;12.60;;;6.72;;
80891;SDS011;70343;51.530;5.050;2023-08-30T02:00:28;12.45;;;6.53;;
80891;SDS011;70343;51.530;5.050;2023-08-30T02:02:54;9.13;;;6.40;;
80891;SDS011;70343;51.530;5.050;2023-08-30T02:05:20;9.43;;;6.57;;
80891;SDS011;70343;51.530;5.050;2023-08-30T02:07:49;8.90;;;6.65;;
80891;SDS011;70343;51.530;5.050;2023-08-30T02:10:17;10.57;;;7.20;;
80891;SDS011;70343;51.530;5.050;2023-08-30T02:12:50;11.60;;;6.90;;
80891;SDS011;70343;51.530;5.050;2023-08-30T02:15:19;10.57;;;6.78;;
80891;SDS011;70343;51.530;5.050;2023-08-30T02:17:46;8.73;;;6.47;;
80891;SDS011;70343;51.530;5.050;2023-08-30T02:20:13;9.50;;;7.00;;
80891;SDS011;70343;51.530;5.050;2023-08-30T02:22:39;8.07;;;5.95;;
80891;SDS011;70343;51.530;5.050;2023-08-30T02:25:05;11.85;;;7.40;;
80891;SDS011;70343;51.530;5.050;2023-08-30T02:27:34;9.30;;;5.53;;
80891;SDS011;70343;51.530;5.050;2023-08-30T02:30:00;8.10;;;6.85;;
80891;SDS011;70343;51.530;5.050;2023-08-30T02:32:27;11.63;;;7.25;;
80891;SDS011;70343;51.530;5.050;2023-08-30T02:34:53;15.57;;;8.05;;
80891;SDS011;70343;51.530;5.050;2023-08-30T02:37:19;10.98;;;7.30;;
80891;SDS011;70343;51.530;5.050;2023-08-30T02:39:45;10.00;;;7.20;;
80891;SDS011;70343;51.530;5.050;2023-08-30T02:42:11;10.38;;;6.72;;
80891;SDS011;70343;51.530;5.050;2023-08-30T02:44:36;11.55;;;7.90;;
80891;SDS011;70343;51.530;5.050;2023-08-30T02:47:02;10.68;;;6.90;;
80891;SDS011;70343;51.530;5.050;2023-08-30T02:49:27;10.90;;;7.75;;
80891;SDS011;70343;51.530;5.050;2023-08-30T02:51:53;11.93;;;7.97;;
80891;SDS011;70343;51.530;5.050;2023-08-30T02:54:18;13.98;;;8.52;;
80891;SDS011;70343;51.530;5.050;2023-08-30T02:56:44;11.02;;;6.95;;
80891;SDS011;70343;51.530;5.050;2023-08-30T02:59:10;15.32;;;8.35;;
80891;SDS011;70343;51.530;5.050;2023-08-30T03:01:37;14.93;;;8.35;;
80891;SDS011;70343;51.530;5.050;2023-08-30T03:04:07;12.02;;;8.10;;
80891;SDS011;70343;51.530;5.050;2023-08-30T03:06:33;13.05;;;9.13;;
80891;SDS011;70343;51.530;5.050;2023-08-30T03:09:00;11.23;;;8.27;;
80891;SDS011;70343;51.530;5.050;2023-08-30T03:11:26;13.13;;;8.73;;
80891;SDS011;70343;51.530;5.050;2023-08-30T03:13:55;12.48;;;8.35;;
80891;SDS011;70343;51.530;5.050;2023-08-30T03:16:21;11.02;;;8.98;;
80891;SDS011;70343;51.530;5.050;2023-08-30T03:18:46;12.32;;;7.13;;
80891;SDS011;70343;51.530;5.050;2023-08-30T03:21:12;15.18;;;8.45;;
80891;SDS011;70343;51.530;5.050;2023-08-30T03:23:38;10.48;;;8.80;;
80891;SDS011;70343;51.530;5.050;2023-08-30T03:26:11;10.85;;;8.57;;
80891;SDS011;70343;51.530;5.050;2023-08-30T03:28:38;11.70;;;7.63;;
80891;SDS011;70343;51.530;5.050;2023-08-30T03:31:14;13.35;;;8.52;;
80891;SDS011;70343;51.530;5.050;2023-08-30T03:33:41;10.55;;;7.55;;
80891;SDS011;70343;51.530;5.050;2023-08-30T03:36:10;11.30;;;8.35;;
80891;SDS011;70343;51.530;5.050;2023-08-30T03:38:37;11.95;;;8.38;;
80891;SDS011;70343;51.530;5.050;2023-08-30T03:41:04;10.55;;;7.47;;
80891;SDS011;70343;51.530;5.050;2023-08-30T03:43:30;10.57;;;7.75;;
80891;SDS011;70343;51.530;5.050;2023-08-30T03:45:57;10.35;;;7.88;;
80891;SDS011;70343;51.530;5.050;2023-08-30T03:48:23;13.02;;;8.45;;
80891;SDS011;70343;51.530;5.050;2023-08-30T03:50:49;11.27;;;8.00;;
80891;SDS011;70343;51.530;5.050;2023-08-30T03:53:14;14.30;;;8.95;;
80891;SDS011;70343;51.530;5.050;2023-08-30T03:55:40;13.88;;;8.13;;
80891;SDS011;70343;51.530;5.050;2023-08-30T03:58:06;12.05;;;8.73;;
80891;SDS011;70343;51.530;5.050;2023-08-30T04:00:31;9.65;;;6.85;;
80891;SDS011;70343;51.530;5.050;2023-08-30T04:02:57;9.73;;;7.32;;
80891;SDS011;70343;51.530;5.050;2023-08-30T04:05:22;12.93;;;7.28;;
80891;SDS011;70343;51.530;5.050;2023-08-30T04:07:48;11.45;;;8.48;;
80891;SDS011;70343;51.530;5.050;2023-08-30T04:10:14;10.90;;;7.60;;
80891;SDS011;70343;51.530;5.050;2023-08-30T04:12:39;10.25;;;7.10;;
80891;SDS011;70343;51.530;5.050;2023-08-30T04:15:05;13.30;;;7.25;;
80891;SDS011;70343;51.530;5.050;2023-08-30T04:17:31;12.70;;;8.18;;
80891;SDS011;70343;51.530;5.050;2023-08-30T04:19:56;12.35;;;7.38;;
80891;SDS011;70343;51.530;5.050;2023-08-30T04:22:22;10.10;;;7.93;;
80891;SDS011;70343;51.530;5.050;2023-08-30T04:24:48;11.27;;;7.95;;
80891;SDS011;70343;51.530;5.050;2023-08-30T04:27:14;9.55;;;7.47;;
80891;SDS011;70343;51.530;5.050;2023-08-30T04:29:39;9.55;;;7.05;;
80891;SDS011;70343;51.530;5.050;2023-08-30T04:32:05;12.30;;;8.50;;
80891;SDS011;70343;51.530;5.050;2023-08-30T04:34:31;13.60;;;8.43;;
80891;SDS011;70343;51.530;5.050;2023-08-30T04:36:57;12.20;;;7.93;;
80891;SDS011;70343;51.530;5.050;2023-08-30T04:39:23;11.38;;;8.10;;
80891;SDS011;70343;51.530;5.050;2023-08-30T04:41:49;13.18;;;7.78;;
80891;SDS011;70343;51.530;5.050;2023-08-30T04:44:17;10.00;;;7.57;;
80891;SDS011;70343;51.530;5.050;2023-08-30T04:46:44;9.88;;;6.68;;
80891;SDS011;70343;51.530;5.050;2023-08-30T04:49:09;12.20;;;7.93;;
80891;SDS011;70343;51.530;5.050;2023-08-30T04:51:35;12.07;;;7.50;;
80891;SDS011;70343;51.530;5.050;2023-08-30T04:54:00;10.35;;;6.53;;
80891;SDS011;70343;51.530;5.050;2023-08-30T04:56:26;10.57;;;7.30;;
80891;SDS011;70343;51.530;5.050;2023-08-30T04:58:52;11.52;;;7.90;;
80891;SDS011;70343;51.530;5.050;2023-08-30T05:01:18;11.77;;;7.97;;
80891;SDS011;70343;51.530;5.050;2023-08-30T05:03:48;9.10;;;7.82;;
80891;SDS011;70343;51.530;5.050;2023-08-30T05:06:14;10.02;;;7.30;;
80891;SDS011;70343;51.530;5.050;2023-08-30T05:08:41;11.00;;;7.32;;
80891;SDS011;70343;51.530;5.050;2023-08-30T05:11:07;10.38;;;7.80;;
80891;SDS011;70343;51.530;5.050;2023-08-30T05:13:35;10.23;;;7.97;;
80891;SDS011;70343;51.530;5.050;2023-08-30T05:16:01;9.77;;;7.35;;
80891;SDS011;70343;51.530;5.050;2023-08-30T05:18:27;11.30;;;7.57;;
80891;SDS011;70343;51.530;5.050;2023-08-30T05:20:52;9.90;;;7.38;;
80891;SDS011;70343;51.530;5.050;2023-08-30T05:23:18;7.97;;;6.38;;
80891;SDS011;70343;51.530;5.050;2023-08-30T05:25:43;7.82;;;6.55;;
80891;SDS011;70343;51.530;5.050;2023-08-30T05:28:09;8.60;;;6.90;;
80891;SDS011;70343;51.530;5.050;2023-08-30T05:30:35;9.23;;;6.32;;
80891;SDS011;70343;51.530;5.050;2023-08-30T05:33:10;11.32;;;6.53;;
80891;SDS011;70343;51.530;5.050;2023-08-30T05:35:42;9.55;;;7.45;;
80891;SDS011;70343;51.530;5.050;2023-08-30T05:38:28;8.68;;;6.55;;
80891;SDS011;70343;51.530;5.050;2023-08-30T05:41:05;12.40;;;7.53;;
80891;SDS011;70343;51.530;5.050;2023-08-30T05:43:31;9.45;;;6.63;;
80891;SDS011;70343;51.530;5.050;2023-08-30T05:45:57;10.27;;;6.60;;
80891;SDS011;70343;51.530;5.050;2023-08-30T05:48:29;9.88;;;6.18;;
80891;SDS011;70343;51.530;5.050;2023-08-30T05:50:55;10.60;;;5.93;;
80891;SDS011;70343;51.530;5.050;2023-08-30T05:53:21;9.90;;;6.28;;
80891;SDS011;70343;51.530;5.050;2023-08-30T05:55:47;11.00;;;6.65;;
80891;SDS011;70343;51.530;5.050;2023-08-30T05:58:13;10.32;;;6.47;;
80891;SDS011;70343;51.530;5.050;2023-08-30T06:00:40;10.18;;;6.88;;
80891;SDS011;70343;51.530;5.050;2023-08-30T06:03:06;10.20;;;6.75;;
80891;SDS011;70343;51.530;5.050;2023-08-30T06:05:31;9.95;;;7.13;;
80891;SDS011;70343;51.530;5.050;2023-08-30T06:07:57;11.10;;;7.43;;
80891;SDS011;70343;51.530;5.050;2023-08-30T06:10:23;9.98;;;6.78;;
80891;SDS011;70343;51.530;5.050;2023-08-30T06:12:48;10.18;;;6.85;;
80891;SDS011;70343;51.530;5.050;2023-08-30T06:15:14;11.52;;;7.13;;
80891;SDS011;70343;51.530;5.050;2023-08-30T06:17:39;12.20;;;7.93;;
80891;SDS011;70343;51.530;5.050;2023-08-30T06:20:05;11.10;;;7.00;;
80891;SDS011;70343;51.530;5.050;2023-08-30T06:22:31;12.80;;;7.40;;
80891;SDS011;70343;51.530;5.050;2023-08-30T06:24:57;15.43;;;8.35;;
80891;SDS011;70343;51.530;5.050;2023-08-30T06:27:23;13.65;;;7.97;;
80891;SDS011;70343;51.530;5.050;2023-08-30T06:29:48;11.93;;;7.35;;
80891;SDS011;70343;51.530;5.050;2023-08-30T06:32:14;15.57;;;9.02;;
80891;SDS011;70343;51.530;5.050;2023-08-30T06:34:39;14.77;;;9.00;;
80891;SDS011;70343;51.530;5.050;2023-08-30T06:37:05;15.38;;;8.77;;
80891;SDS011;70343;51.530;5.050;2023-08-30T06:39:34;12.43;;;7.25;;
80891;SDS011;70343;51.530;5.050;2023-08-30T06:42:01;16.45;;;8.80;;
80891;SDS011;70343;51.530;5.050;2023-08-30T06:44:27;14.85;;;9.40;;
80891;SDS011;70343;51.530;5.050;2023-08-30T06:46:55;11.68;;;7.38;;
80891;SDS011;70343;51.530;5.050;2023-08-30T06:49:21;14.23;;;7.93;;
80891;SDS011;70343;51.530;5.050;2023-08-30T06:51:47;12.68;;;8.20;;
80891;SDS011;70343;51.530;5.050;2023-08-30T06:54:13;13.60;;;7.35;;
80891;SDS011;70343;51.530;5.050;2023-08-30T06:56:38;11.05;;;6.10;;
80891;SDS011;70343;51.530;5.050;2023-08-30T06:59:04;11.88;;;6.50;;
80891;SDS011;70343;51.530;5.050;2023-08-30T07:01:29;12.13;;;7.28;;
80891;SDS011;70343;51.530;5.050;2023-08-30T07:03:54;10.13;;;6.32;;
80891;SDS011;70343;51.530;5.050;2023-08-30T07:06:20;12.75;;;6.78;;
80891;SDS011;70343;51.530;5.050;2023-08-30T07:08:45;15.30;;;8.45;;
80891;SDS011;70343;51.530;5.050;2023-08-30T07:11:11;12.18;;;6.88;;
80891;SDS011;70343;51.530;5.050;2023-08-30T07:13:37;13.57;;;6.68;;
80891;SDS011;70343;51.530;5.050;2023-08-30T07:16:02;12.23;;;6.30;;
80891;SDS011;70343;51.530;5.050;2023-08-30T07:18:29;10.63;;;6.22;;
80891;SDS011;70343;51.530;5.050;2023-08-30T07:20:54;10.20;;;6.78;;
80891;SDS011;70343;51.530;5.050;2023-08-30T07:23:20;11.43;;;6.93;;
80891;SDS011;70343;51.530;5.050;2023-08-30T07:25:45;12.02;;;6.30;;
80891;SDS011;70343;51.530;5.050;2023-08-30T07:28:10;13.70;;;7.25;;
80891;SDS011;70343;51.530;5.050;2023-08-30T07:30:36;10.38;;;6.55;;
80891;SDS011;70343;51.530;5.050;2023-08-30T07:33:03;10.63;;;6.53;;
80891;SDS011;70343;51.530;5.050;2023-08-30T07:35:29;9.65;;;6.38;;
80891;SDS011;70343;51.530;5.050;2023-08-30T07:37:55;14.20;;;7.60;;
80891;SDS011;70343;51.530;5.050;2023-08-30T07:40:21;10.90;;;6.20;;
80891;SDS011;70343;51.530;5.050;2023-08-30T07:42:51;8.68;;;6.30;;
80891;SDS011;70343;51.530;5.050;2023-08-30T07:45:17;8.82;;;5.07;;
80891;SDS011;70343;51.530;5.050;2023-08-30T07:47:43;9.45;;;6.25;;
80891;SDS011;70343;51.530;5.050;2023-08-30T07:50:08;7.60;;;5.88;;
80891;SDS011;70343;51.530;5.050;2023-08-30T07:52:34;10.13;;;6.18;;
80891;SDS011;70343;51.530;5.050;2023-08-30T07:54:59;8.20;;;5.63;;
80891;SDS011;70343;51.530;5.050;2023-08-30T07:57:25;10.23;;;5.95;;
80891;SDS011;70343;51.530;5.050;2023-08-30T07:59:51;7.95;;;5.60;;
80891;SDS011;70343;51.530;5.050;2023-08-30T08:02:16;9.32;;;5.95;;
80891;SDS011;70343;51.530;5.050;2023-08-30T08:04:42;9.40;;;6.10;;
80891;SDS011;70343;51.530;5.050;2023-08-30T08:07:08;9.30;;;5.80;;
80891;SDS011;70343;51.530;5.050;2023-08-30T08:09:33;8.93;;;6.30;;
80891;SDS011;70343;51.530;5.050;2023-08-30T08:11:59;10.63;;;6.60;;
80891;SDS011;70343;51.530;5.050;2023-08-30T08:14:24;7.30;;;5.70;;
80891;SDS011;70343;51.530;5.050;2023-08-30T08:16:50;9.95;;;7.00;;
80891;SDS011;70343;51.530;5.050;2023-08-30T08:19:15;12.60;;;8.50;;
80891;SDS011;70343;51.530;5.050;2023-08-30T08:21:41;10.88;;;9.05;;
80891;SDS011;70343;51.530;5.050;2023-08-30T08:24:07;11.05;;;9.60;;
80891;SDS011;70343;51.530;5.050;2023-08-30T08:26:32;11.82;;;8.85;;
80891;SDS011;70343;51.530;5.050;2023-08-30T08:28:57;15.05;;;10.35;;
80891;SDS011;70343;51.530;5.050;2023-08-30T08:31:23;14.70;;;10.27;;
80891;SDS011;70343;51.530;5.050;2023-08-30T08:34:05;11.07;;;9.40;;
80891;SDS011;70343;51.530;5.050;2023-08-30T08:36:33;11.65;;;9.25;;
80891;SDS011;70343;51.530;5.050;2023-08-30T08:38:58;14.38;;;10.55;;
80891;SDS011;70343;51.530;5.050;2023-08-30T08:41:24;13.07;;;9.85;;
80891;SDS011;70343;51.530;5.050;2023-08-30T08:43:59;10.63;;;9.02;;
80891;SDS011;70343;51.530;5.050;2023-08-30T08:46:25;10.85;;;9.30;;
80891;SDS011;70343;51.530;5.050;2023-08-30T08:48:54;12.85;;;9.48;;
80891;SDS011;70343;51.530;5.050;2023-08-30T08:51:21;11.02;;;9.68;;
80891;SDS011;70343;51.530;5.050;2023-08-30T08:53:48;14.00;;;10.15;;
80891;SDS011;70343;51.530;5.050;2023-08-30T08:56:14;12.02;;;9.30;;
80891;SDS011;70343;51.530;5.050;2023-08-30T08:58:41;13.27;;;10.10;;
80891;SDS011;70343;51.530;5.050;2023-08-30T09:01:08;13.00;;;10.05;;
80891;SDS011;70343;51.530;5.050;2023-08-30T09:03:35;14.43;;;11.43;;
80891;SDS011;70343;51.530;5.050;2023-08-30T09:06:02;11.00;;;9.38;;
80891;SDS011;70343;51.530;5.050;2023-08-30T09:08:28;11.52;;;10.07;;
80891;SDS011;70343;51.530;5.050;2023-08-30T09:10:53;10.57;;;9.48;;
80891;SDS011;70343;51.530;5.050;2023-08-30T09:13:19;10.30;;;8.65;;
80891;SDS011;70343;51.530;5.050;2023-08-30T09:15:46;9.40;;;8.38;;
80891;SDS011;70343;51.530;5.050;2023-08-30T09:18:17;11.38;;;9.23;;
80891;SDS011;70343;51.530;5.050;2023-08-30T09:20:44;12.65;;;10.20;;
80891;SDS011;70343;51.530;5.050;2023-08-30T09:23:16;12.30;;;9.88;;
80891;SDS011;70343;51.530;5.050;2023-08-30T09:25:56;11.90;;;10.00;;
80891;SDS011;70343;51.530;5.050;2023-08-30T09:28:21;12.40;;;10.07;;
80891;SDS011;70343;51.530;5.050;2023-08-30T09:30:50;11.60;;;9.80;;
80891;SDS011;70343;51.530;5.050;2023-08-30T09:33:22;10.60;;;9.60;;
80891;SDS011;70343;51.530;5.050;2023-08-30T09:35:49;10.40;;;9.32;;
80891;SDS011;70343;51.530;5.050;2023-08-30T09:38:18;11.13;;;10.02;;
80891;SDS011;70343;51.530;5.050;2023-08-30T09:40:44;11.07;;;9.98;;
80891;SDS011;70343;51.530;5.050;2023-08-30T09:43:11;10.85;;;9.73;;
80891;SDS011;70343;51.530;5.050;2023-08-30T09:45:37;11.73;;;9.50;;
80891;SDS011;70343;51.530;5.050;2023-08-30T09:48:03;11.95;;;10.75;;
80891;SDS011;70343;51.530;5.050;2023-08-30T09:50:31;9.63;;;8.70;;
80891;SDS011;70343;51.530;5.050;2023-08-30T09:53:00;9.43;;;8.35;;
80891;SDS011;70343;51.530;5.050;2023-08-30T09:55:31;8.35;;;7.35;;
80891;SDS011;70343;51.530;5.050;2023-08-30T09:57:57;7.97;;;7.20;;
80891;SDS011;70343;51.530;5.050;2023-08-30T10:00:23;8.70;;;6.45;;
80891;SDS011;70343;51.530;5.050;2023-08-30T10:02:49;7.80;;;7.00;;
80891;SDS011;70343;51.530;5.050;2023-08-30T10:05:15;7.60;;;6.75;;
80891;SDS011;70343;51.530;5.050;2023-08-30T10:07:41;6.28;;;5.60;;
80891;SDS011;70343;51.530;5.050;2023-08-30T10:10:09;6.65;;;6.00;;
80891;SDS011;70343;51.530;5.050;2023-08-30T10:12:35;6.95;;;5.32;;
80891;SDS011;70343;51.530;5.050;2023-08-30T10:15:02;6.45;;;4.13;;
80891;SDS011;70343;51.530;5.050;2023-08-30T10:17:28;5.97;;;3.92;;
80891;SDS011;70343;51.530;5.050;2023-08-30T10:19:57;6.40;;;4.55;;
80891;SDS011;70343;51.530;5.050;2023-08-30T10:22:24;4.93;;;3.03;;
80891;SDS011;70343;51.530;5.050;2023-08-30T10:27:29;5.95;;;2.53;;
80891;SDS011;70343;51.530;5.050;2023-08-30T10:29:57;4.13;;;2.47;;
80891;SDS011;70343;51.530;5.050;2023-08-30T10:32:26;5.50;;;2.65;;
80891;SDS011;70343;51.530;5.050;2023-08-30T10:34:51;4.03;;;2.58;;
80891;SDS011;70343;51.530;5.050;2023-08-30T10:37:23;7.18;;;2.63;;
80891;SDS011;70343;51.530;5.050;2023-08-30T10:39:51;4.78;;;2.20;;
80891;SDS011;70343;51.530;5.050;2023-08-30T10:42:21;6.40;;;2.33;;
80891;SDS011;70343;51.530;5.050;2023-08-30T10:47:23;6.93;;;2.25;;
80891;SDS011;70343;51.530;5.050;2023-08-30T10:50:00;5.13;;;2.50;;
80891;SDS011;70343;51.530;5.050;2023-08-30T10:52:30;9.02;;;3.10;;
80891;SDS011;70343;51.530;5.050;2023-08-30T10:55:09;12.52;;;3.47;;
80891;SDS011;70343;51.530;5.050;2023-08-30T10:57:34;6.78;;;2.50;;
80891;SDS011;70343;51.530;5.050;2023-08-30T11:00:19;7.45;;;2.47;;
80891;SDS011;70343;51.530;5.050;2023-08-30T11:02:47;5.38;;;2.40;;
80891;SDS011;70343;51.530;5.050;2023-08-30T11:05:15;4.82;;;2.35;;
80891;SDS011;70343;51.530;5.050;2023-08-30T11:07:42;7.72;;;2.80;;
80891;SDS011;70343;51.530;5.050;2023-08-30T11:10:11;5.97;;;2.08;;
80891;SDS011;70343;51.530;5.050;2023-08-30T11:12:40;8.27;;;2.55;;
80891;SDS011;70343;51.530;5.050;2023-08-30T11:15:07;8.88;;;2.50;;
80891;SDS011;70343;51.530;5.050;2023-08-30T11:17:34;5.40;;;2.50;;
80891;SDS011;70343;51.530;5.050;2023-08-30T11:22:36;5.82;;;2.60;;
80891;SDS011;70343;51.530;5.050;2023-08-30T11:25:16;6.30;;;2.03;;
80891;SDS011;70343;51.530;5.050;2023-08-30T11:27:42;5.22;;;1.98;;
80891;SDS011;70343;51.530;5.050;2023-08-30T11:30:08;4.28;;;1.73;;
80891;SDS011;70343;51.530;5.050;2023-08-30T11:32:35;5.55;;;2.00;;
80891;SDS011;70343;51.530;5.050;2023-08-30T11:35:02;7.55;;;3.05;;
80891;SDS011;70343;51.530;5.050;2023-08-30T11:37:28;6.25;;;1.85;;
80891;SDS011;70343;51.530;5.050;2023-08-30T11:39:57;8.65;;;2.15;;
80891;SDS011;70343;51.530;5.050;2023-08-30T11:42:23;6.32;;;2.20;;
80891;SDS011;70343;51.530;5.050;2023-08-30T11:44:49;4.63;;;1.83;;
80891;SDS011;70343;51.530;5.050;2023-08-30T11:47:18;5.10;;;1.83;;
80891;SDS011;70343;51.530;5.050;2023-08-30T11:49:46;4.75;;;2.03;;
80891;SDS011;70343;51.530;5.050;2023-08-30T11:54:40;5.05;;;1.67;;
80891;SDS011;70343;51.530;5.050;2023-08-30T11:57:06;3.30;;;1.85;;
80891;SDS011;70343;51.530;5.050;2023-08-30T11:59:34;5.50;;;1.70;;
80891;SDS011;70343;51.530;5.050;2023-08-30T12:02:01;4.75;;;1.55;;
80891;SDS011;70343;51.530;5.050;2023-08-30T12:04:27;3.63;;;1.55;;
80891;SDS011;70343;51.530;5.050;2023-08-30T12:06:52;6.30;;;1.52;;
80891;SDS011;70343;51.530;5.050;2023-08-30T12:11:49;9.80;;;1.60;;
80891;SDS011;70343;51.530;5.050;2023-08-30T12:14:15;6.25;;;2.03;;
80891;SDS011;70343;51.530;5.050;2023-08-30T12:16:41;5.40;;;1.50;;
80891;SDS011;70343;51.530;5.050;2023-08-30T12:19:08;5.88;;;1.80;;
80891;SDS011;70343;51.530;5.050;2023-08-30T12:21:41;5.20;;;1.73;;
80891;SDS011;70343;51.530;5.050;2023-08-30T12:24:09;6.93;;;1.75;;
80891;SDS011;70343;51.530;5.050;2023-08-30T12:26:35;4.95;;;1.38;;
80891;SDS011;70343;51.530;5.050;2023-08-30T12:29:07;8.20;;;1.83;;
80891;SDS011;70343;51.530;5.050;2023-08-30T12:31:32;4.65;;;1.88;;
80891;SDS011;70343;51.530;5.050;2023-08-30T12:33:58;6.05;;;1.70;;
80891;SDS011;70343;51.530;5.050;2023-08-30T12:36:24;5.65;;;1.30;;
80891;SDS011;70343;51.530;5.050;2023-08-30T12:38:49;8.27;;;1.73;;
80891;SDS011;70343;51.530;5.050;2023-08-30T12:41:15;4.20;;;1.40;;
80891;SDS011;70343;51.530;5.050;2023-08-30T12:43:41;4.35;;;1.40;;
80891;SDS011;70343;51.530;5.050;2023-08-30T12:46:06;3.75;;;1.30;;
80891;SDS011;70343;51.530;5.050;2023-08-30T12:48:32;5.28;;;1.58;;
80891;SDS011;70343;51.530;5.050;2023-08-30T12:50:58;4.97;;;1.40;;
80891;SDS011;70343;51.530;5.050;2023-08-30T12:53:23;4.43;;;1.40;;
80891;SDS011;70343;51.530;5.050;2023-08-30T12:55:49;5.68;;;1.92;;
80891;SDS011;70343;51.530;5.050;2023-08-30T12:58:14;9.45;;;1.52;;
80891;SDS011;70343;51.530;5.050;2023-08-30T13:00:40;6.63;;;1.50;;
80891;SDS011;70343;51.530;5.050;2023-08-30T13:03:05;5.30;;;1.42;;
80891;SDS011;70343;51.530;5.050;2023-08-30T13:05:31;5.75;;;1.58;;
80891;SDS011;70343;51.530;5.050;2023-08-30T13:07:57;3.28;;;1.17;;
80891;SDS011;70343;51.530;5.050;2023-08-30T13:10:23;4.97;;;1.77;;
80891;SDS011;70343;51.530;5.050;2023-08-30T13:12:49;4.05;;;1.20;;
80891;SDS011;70343;51.530;5.050;2023-08-30T13:15:15;3.38;;;1.20;;
80891;SDS011;70343;51.530;5.050;2023-08-30T13:17:40;5.38;;;1.30;;
80891;SDS011;70343;51.530;5.050;2023-08-30T13:20:06;3.15;;;1.10;;
80891;SDS011;70343;51.530;5.050;2023-08-30T13:22:32;4.18;;;1.02;;
80891;SDS011;70343;51.530;5.050;2023-08-30T13:24:57;4.38;;;1.20;;
80891;SDS011;70343;51.530;5.050;2023-08-30T13:27:23;4.78;;;1.30;;
80891;SDS011;70343;51.530;5.050;2023-08-30T13:29:48;4.40;;;1.10;;
80891;SDS011;70343;51.530;5.050;2023-08-30T13:32:14;5.10;;;1.33;;
80891;SDS011;70343;51.530;5.050;2023-08-30T13:34:39;6.47;;;1.55;;
80891;SDS011;70343;51.530;5.050;2023-08-30T13:37:05;4.35;;;1.20;;
80891;SDS011;70343;51.530;5.050;2023-08-30T13:39:31;4.20;;;1.10;;
80891;SDS011;70343;51.530;5.050;2023-08-30T13:41:57;3.30;;;1.02;;
80891;SDS011;70343;51.530;5.050;2023-08-30T13:44:22;4.10;;;1.05;;
80891;SDS011;70343;51.530;5.050;2023-08-30T13:46:49;2.40;;;0.98;;
80891;SDS011;70343;51.530;5.050;2023-08-30T13:49:15;2.03;;;0.70;;
80891;SDS011;70343;51.530;5.050;2023-08-30T13:51:41;3.55;;;1.10;;
80891;SDS011;70343;51.530;5.050;2023-08-30T13:54:07;4.43;;;1.23;;
80891;SDS011;70343;51.530;5.050;2023-08-30T13:56:32;5.47;;;1.27;;
80891;SDS011;70343;51.530;5.050;2023-08-30T13:58:58;3.72;;;1.05;;
80891;SDS011;70343;51.530;5.050;2023-08-30T14:01:24;5.18;;;1.10;;
80891;SDS011;70343;51.530;5.050;2023-08-30T14:03:50;5.13;;;1.35;;
80891;SDS011;70343;51.530;5.050;2023-08-30T14:06:15;4.28;;;1.00;;
80891;SDS011;70343;51.530;5.050;2023-08-30T14:08:41;3.10;;;1.08;;
80891;SDS011;70343;51.530;5.050;2023-08-30T14:11:06;1.27;;;0.60;;
80891;SDS011;70343;51.530;5.050;2023-08-30T14:13:32;3.83;;;0.70;;
80891;SDS011;70343;51.530;5.050;2023-08-30T14:16:01;1.95;;;0.60;;
80891;SDS011;70343;51.530;5.050;2023-08-30T14:18:30;3.13;;;1.00;;
80891;SDS011;70343;51.530;5.050;2023-08-30T14:20:57;2.88;;;0.82;;
80891;SDS011;70343;51.530;5.050;2023-08-30T14:23:26;3.10;;;0.90;;
80891;SDS011;70343;51.530;5.050;2023-08-30T14:25:55;2.38;;;0.70;;
80891;SDS011;70343;51.530;5.050;2023-08-30T14:28:23;2.47;;;0.70;;
80891;SDS011;70343;51.530;5.050;2023-08-30T14:30:49;2.88;;;0.80;;
80891;SDS011;70343;51.530;5.050;2023-08-30T14:33:14;4.22;;;0.70;;
80891;SDS011;70343;51.530;5.050;2023-08-30T14:35:43;3.15;;;0.80;;
80891;SDS011;70343;51.530;5.050;2023-08-30T14:38:08;2.67;;;0.70;;
80891;SDS011;70343;51.530;5.050;2023-08-30T14:40:34;2.10;;;0.52;;
80891;SDS011;70343;51.530;5.050;2023-08-30T14:43:02;2.10;;;0.70;;
80891;SDS011;70343;51.530;5.050;2023-08-30T14:45:28;3.22;;;0.90;;
80891;SDS011;70343;51.530;5.050;2023-08-30T14:47:54;3.03;;;1.10;;
80891;SDS011;70343;51.530;5.050;2023-08-30T14:50:20;2.70;;;1.10;;
80891;SDS011;70343;51.530;5.050;2023-08-30T14:52:45;2.92;;;1.17;;